Franklin Springs, New York
Current Conditions -  °F | °C
As of 5:53 AM on Monday 20 Oct 2014 (Local Time) from KRME Reporting Station
Scattered Clouds Scattered Clouds  
Wind Chill: 31°   Ceiling: Unl
Heat Index: 35°   Visibility: 10mi
Dew Point: 32°   Wind: 5mph
Humidity: 89%   Direction: 90°E
Pressure: 30.02"   Gusts: NA
Location:  43.04°N, 75.39°W
Report Text: KRME 200953Z AUTO 09004KT 10SM SCT110 02/00 A3002 RMK AO2 SLP168 T00170000 TSNO
Loading
Personal Weather Stations






























Interactive Weather Map
Tropical Storm Tracking
New forecast layout! Learn more

10-Day Weather Forecast

Advertisements
Track Severe Weather on mobile